Terminal Aerodrome Forecast
Issued by NWS Cleveland, OH

Home | Current Version | Previous Version | Graphics & Text | Print | Product List | Glossary On
Versions: 1 2 3 4 5 6 7 8 9 10 11 12 13 14 15 16 17 18 19
000
FTUS41 KCLE 171100
TAFCAK
TAF
KCAK 171133Z 1712/1812 26005KT 4SM BR BKN007 OVC025
      TEMPO 1712/1714 2SM SHRA BR OVC007
     FM171400 28003KT P6SM VCSH SCT015 OVC025
     FM171900 35005KT P6SM BKN035 BKN080
     FM172200 35004KT P6SM BKN040=

USA.gov is the U.S. government's official web portal to all federal, state and local government web resources and services.